ADDS METAR Data INFO
IDs: Format: Raw Decoded Include TAF

Data at: 1928 UTC 17 Jul 2018

KEKN 171913Z AUTO 28008KT 10SM SCT025 SCT034 27/21 A2995 RMK AO2 T02670206 TSNO
KEKN 171851Z AUTO 30005KT 10SM SCT023 BKN029 BKN033 27/21 A2996 RMK AO2 RAE1752 SLP133 P0000 T02720206 TSNO
KEKN 171838Z AUTO VRB05KT 10SM BKN022 BKN027 BKN037 26/21 A2997 RMK AO2 RAE1752 P0000 T02560206 TSNO
KEKN 171819Z AUTO 28005KT 10SM SCT018 SCT027 BKN036 27/21 A2998 RMK AO2 RAE1752 P0000 T02670211 TSNO
KEKN 171751Z AUTO VRB06KT 10SM -RA FEW018 BKN024 BKN034 25/21 A2999 RMK AO2 RAB29 SLP144 P0000 60023 T02500211 10256 20189 58004 TSNO
KEKN 171721Z AUTO 32008KT 10SM SCT016 BKN026 OVC034 25/21 A2999 RMK AO2 T02500206 TSNO
KEKN 171651Z AUTO 25005KT 10SM BKN013 OVC023 24/21 A3000 RMK AO2 RAB1554E22 SLP148 P0000 T02390206 TSNO
KEKN 171632Z AUTO VRB03KT 10SM SCT012 BKN018 OVC026 24/21 A2999 RMK AO2 RAB1554E22 P0000 T02440206 TSNO
KEKN 171609Z AUTO VRB03KT 7SM -RA BKN014 OVC020 23/21 A3000 RMK AO2 RAB1554 P0000 T02280206 TSNO
KEKN 171551Z AUTO 00000KT 10SM BKN015 OVC020 23/20 A3000 RMK AO2 SLP148 T02330200 TSNO
KEKN 171549Z AUTO 00000KT 10SM BKN015 OVC020 23/20 A3000 RMK AO2 TSNO
KEKN 171522Z AUTO 29004KT 10SM OVC012 23/20 A3000 RMK AO2 T02280200 TSNO
KEKN 171451Z AUTO 34003KT 10SM OVC009 22/20 A3000 RMK AO2 RAE1357 CIG 006V013 SLP151 P0000 60023 T02220200 53008 TSNO
KEKN 171358Z AUTO 00000KT 4SM BR OVC008 21/19 A2999 RMK AO2 RAE57 CIG 003V012 P0000 T02060194 TSNO
KEKN 171353Z AUTO 00000KT 2SM -RA BR FEW003 OVC010 20/19 A2999 RMK AO2 CIG 005V012 P0000 T02000194 TSNO
KEKN 171351Z AUTO 00000KT 1 3/4SM -RA BR SCT003 OVC010 20/19 A2999 RMK AO2 CIG 005V012 SLP146 P0003 T02000194 TSNO
KEKN 171345Z AUTO 00000KT 1 3/4SM -RA BR BKN005 OVC012 20/19 A2999 RMK AO2 CIG 002V008 P0002 TSNO
KEKN 171336Z AUTO 00000KT 2SM -RA BR BKN003 OVC013 20/19 A2999 RMK AO2 CIG 002V006 P0002 T02000189 TSNO
KEKN 171328Z AUTO 31003KT 3SM -RA BR OVC003 20/19 A2999 RMK AO2 CIG 002V006 P0002 T02000189 TSNO
KEKN 171304Z AUTO 00000KT 2SM -RA BR BKN003 BKN014 OVC021 19/18 A2999 RMK AO2 P0001 T01940183 TSNO
KEKN 171257Z AUTO 00000KT 1 3/4SM -RA BR BKN003 BKN007 OVC021 19/19 A2999 RMK AO2 P0000 T01940189 TSNO
KEKN 171251Z AUTO 00000KT 1 1/2SM -RA BR SCT005 BKN014 OVC023 19/18 A2999 RMK AO2 SLP146 P0020 T01940183 TSNO
KEKN 171233Z AUTO 00000KT 1 3/4SM -RA BR FEW005 SCT015 OVC025 19/18 A2999 RMK AO2 P0017 T01940183 TSNO
KEKN 171214Z AUTO 00000KT 3/4SM +RA BR FEW005 BKN027 OVC049 19/18 A2999 RMK AO2 P0005 T01940183 TSNO
KEKN 171209Z AUTO 28003KT 1 1/2SM RA BR FEW005 BKN032 OVC049 19/18 A2999 RMK AO2 P0001 T01940183 TSNO
KEKN 171151Z AUTO 00000KT 4SM -RA BR FEW003 BKN039 OVC050 19/18 A2998 RMK AO2 RAB01 SLP141 P0001 60004 70005 T01940183 10194 20178 57003 TSNO
KEKN 171131Z AUTO 00000KT 8SM -RA FEW003 BKN043 OVC050 19/18 A2999 RMK AO2 RAB01 P0000 T01940183 TSNO
KEKN 171051Z AUTO 00000KT 7SM BKN043 BKN050 19/18 A2998 RMK AO2 RAE17 SLP140 P0000 T01890178 TSNO
KEKN 171030Z AUTO 00000KT 7SM SCT025 BKN050 19/18 A2998 RMK AO2 RAE17 P0000 T01890178 TSNO
KEKN 170951Z AUTO 00000KT 7SM -RA BKN025 BKN038 OVC070 19/18 A2999 RMK AO2 RAB0852E19B42 SLP143 P0003 T01890178 TSNO
KEKN 170948Z AUTO 00000KT 7SM -RA BKN027 BKN038 OVC048 19/18 A2999 RMK AO2 RAB0852E19B42 P0003 TSNO
KEKN 170851Z AUTO 18003KT 8SM BKN030 OVC040 19/17 A3000 RMK AO2 SLP147 T01890172 55003 TSNO
KEKN 170751Z AUTO 00000KT 10SM SCT034 SCT042 OVC060 19/17 A2999 RMK AO2 SLP147 T01890172 TSNO
KEKN 170651Z AUTO 00000KT 8SM SCT031 18/17 A3000 RMK AO2 SLP147 T01830172 TSNO
KEKN 170551Z AUTO 00000KT 9SM SCT039 BKN046 BKN060 19/18 A3001 RMK AO2 SLP148 T01890178 10239 20189 58006 TSNO
KEKN 170451Z AUTO 00000KT 10SM SCT036 19/18 A3002 RMK AO2 SLP152 T01940178 403000161 TSNO
KEKN 170351Z AUTO 00000KT 10SM CLR 20/18 A3003 RMK AO2 SLP155 T02000178 TSNO
KEKN 170251Z AUTO 00000KT 8SM CLR 20/18 A3003 RMK AO2 SLP156 T02000183 53004 TSNO
KEKN 170151Z AUTO 15003KT 10SM CLR 21/19 A3002 RMK AO2 SLP157 T02060194 TSNO
KEKN 170051Z AUTO 00000KT 10SM CLR 22/20 A3002 RMK AO2 SLP156 T02170200 TSNO
KEKN 162351Z AUTO 00000KT 10SM CLR 24/21 A3001 RMK AO2 SLP155 60001 T02390206 10300 20222 55007 TSNO
KEKN 162251Z AUTO 00000KT 10SM CLR 25/20 A3001 RMK AO2 SLP155 T02500200 TSNO
KEKN 162151Z AUTO 00000KT 10SM CLR 26/19 A3001 RMK AO2 SLP153 T02610189 TSNO
KEKN 162051Z AUTO 00000KT 10SM FEW120 24/19 A3004 RMK AO2 RAE34 SLP163 P0000 60001 T02390194 56006 TSNO
KEKN 161951Z AUTO 18003KT 6SM -RA FEW070 FEW085 OVC110 23/18 A3005 RMK AO2 RAB28 SLP169 P0001 T02280178 TSNO